Time;durP1;ratioP1;P1;durP2;ratioP2;P2;SDS_P1;SDS_P2;PMS_P1;PMS_P2;Temp;Humidity;BMP_temperature;BMP_pressure;BME280_temperature;BME280_humidity;BME280_pressure;Samples;Min_cycle;Max_cycle;Signal;HPM_P1;HPM_P2
2021/01/20 00:01:51;;;;;;;124.80;66.47;;;;;;;-1.02;85.66;99754.22;102566;1106;82062;-77
2021/01/20 00:03:57;;;;;;;124.93;66.77;;;;;;;-1.02;85.47;99750.72;102569;1105;72984;-77
2021/01/20 00:06:04;;;;;;;119.50;64.97;;;;;;;-1.01;85.46;99753.22;102611;1106;85277;-76
2021/01/20 00:08:10;;;;;;;125.63;63.80;;;;;;;-0.98;85.39;99755.61;102534;1106;79021;-77
2021/01/20 00:10:16;;;;;;;122.45;63.05;;;;;;;-0.96;85.66;99766.10;102547;1105;64906;-64
2021/01/20 00:12:22;;;;;;;119.87;63.23;;;;;;;-0.97;86.14;99757.30;102537;1106;80398;-64
2021/01/20 00:14:28;;;;;;;119.67;64.80;;;;;;;-0.96;85.80;99760.80;102550;1108;72983;-65
2021/01/20 00:16:34;;;;;;;122.00;65.43;;;;;;;-0.92;85.74;99751.59;102602;1105;84749;-63
2021/01/20 00:18:39;;;;;;;118.30;60.30;;;;;;;-0.90;85.65;99757.59;102529;1106;79584;-65
2021/01/20 00:20:45;;;;;;;122.30;62.93;;;;;;;-0.91;85.80;99756.78;102636;1106;65232;-73
2021/01/20 00:22:53;;;;;;;117.70;61.30;;;;;;;-0.87;85.77;99752.03;102603;1105;81217;-64
2021/01/20 00:24:59;;;;;;;117.17;62.63;;;;;;;-0.89;86.08;99753.98;102593;1106;71519;-71
2021/01/20 00:27:06;;;;;;;118.33;62.10;;;;;;;-0.87;86.08;99744.08;102457;1105;84804;-71
2021/01/20 00:29:11;;;;;;;113.40;60.73;;;;;;;-0.83;85.70;99746.35;102732;1106;79076;-70
2021/01/20 00:31:18;;;;;;;119.77;61.10;;;;;;;-0.82;85.90;99747.16;102575;1105;64830;-72
2021/01/20 00:33:23;;;;;;;112.00;60.93;;;;;;;-0.80;85.92;99754.05;102628;1105;82262;-72
2021/01/20 00:35:29;;;;;;;120.83;60.53;;;;;;;-0.80;86.11;99740.78;102628;1109;73298;-64
2021/01/20 00:37:35;;;;;;;118.55;61.40;;;;;;;-0.81;86.12;99739.09;102534;1109;86190;-65
2021/01/20 00:39:41;;;;;;;116.00;59.93;;;;;;;-0.81;85.95;99739.09;102544;1113;77811;-71
2021/01/20 00:41:47;;;;;;;113.97;61.23;;;;;;;-0.79;85.72;99738.95;102552;1108;64894;-71
2021/01/20 00:43:53;;;;;;;111.37;55.40;;;;;;;-0.81;85.95;99739.09;102527;1109;82217;-71
2021/01/20 00:45:59;;;;;;;109.33;58.93;;;;;;;-0.79;85.98;99737.14;102609;1113;72566;-64
2021/01/20 00:48:12;;;;;;;107.13;58.30;;;;;;;-0.78;85.79;99738.83;102553;1109;85485;-66
2021/01/20 00:50:18;;;;;;;104.60;56.10;;;;;;;-0.79;85.87;99737.14;102511;1109;79092;-71
2021/01/20 00:52:24;;;;;;;113.27;60.03;;;;;;;-0.74;85.78;99734.92;102536;1109;64981;-72
2021/01/20 00:54:29;;;;;;;110.50;58.23;;;;;;;-0.73;86.01;99728.66;102508;1109;84099;-66
2021/01/20 00:56:38;;;;;;;110.50;57.60;;;;;;;-0.73;86.11;99723.36;102544;1109;71751;-65
2021/01/20 00:58:47;;;;;;;105.20;55.87;;;;;;;-0.71;86.22;99726.70;102558;1109;85314;-66
2021/01/20 01:00:53;;;;;;;98.13;53.53;;;;;;;-0.73;86.03;99720.70;102543;1109;79921;-68
2021/01/20 01:02:58;;;;;;;109.93;56.87;;;;;;;-0.75;85.88;99720.00;102554;1108;65016;-64
2021/01/20 01:05:06;;;;;;;109.25;55.95;;;;;;;-0.76;86.28;99717.47;102536;1108;81849;-64
2021/01/20 01:07:12;;;;;;;98.90;52.97;;;;;;;-0.77;86.10;99719.27;102556;1109;72226;-64
2021/01/20 01:09:17;;;;;;;95.57;52.53;;;;;;;-0.76;86.40;99723.62;102524;1112;85032;-63
2021/01/20 01:11:23;;;;;;;97.03;51.17;;;;;;;-0.77;86.19;99723.77;102534;1109;78779;-71
2021/01/20 01:13:29;;;;;;;89.90;47.93;;;;;;;-0.73;86.47;99720.70;102524;1109;64833;-71
2021/01/20 01:15:38;;;;;;;101.60;54.43;;;;;;;-0.74;86.19;99726.97;102564;1111;83046;-71
2021/01/20 01:17:44;;;;;;;91.13;49.60;;;;;;;-0.71;86.14;99720.55;102565;1109;71930;-71
2021/01/20 01:19:50;;;;;;;93.63;51.23;;;;;;;-0.68;86.13;99723.78;102519;1109;85186;-70
2021/01/20 01:21:56;;;;;;;94.03;50.07;;;;;;;-0.67;86.28;99724.63;102515;1113;77790;-70
2021/01/20 01:24:06;;;;;;;93.87;49.63;;;;;;;-0.68;86.28;99718.48;102558;1113;64741;-71
2021/01/20 01:26:12;;;;;;;90.70;48.80;;;;;;;-0.74;86.30;99723.47;102550;1113;82391;-68
2021/01/20 01:28:17;;;;;;;97.20;50.40;;;;;;;-0.71;86.23;99712.59;102532;1109;71758;-64
2021/01/20 01:30:25;;;;;;;98.03;51.37;;;;;;;-0.69;86.32;99715.98;102534;1112;85855;-65
2021/01/20 01:32:34;;;;;;;89.67;47.97;;;;;;;-0.65;86.05;99712.91;102543;1113;78773;-64
2021/01/20 01:34:39;;;;;;;83.60;45.95;;;;;;;-0.67;86.07;99703.41;102564;1111;64853;-71
2021/01/20 01:36:45;;;;;;;92.93;48.53;;;;;;;-0.67;86.42;99704.26;102559;1112;83134;-73
2021/01/20 01:38:51;;;;;;;93.00;50.57;;;;;;;-0.62;86.22;99707.34;102549;1109;74226;-72
2021/01/20 01:40:56;;;;;;;82.33;44.73;;;;;;;-0.65;86.21;99702.30;102578;1109;85390;-66
2021/01/20 01:43:02;;;;;;;76.67;43.00;;;;;;;-0.67;86.28;99706.91;102514;1108;78801;-66
2021/01/20 01:45:12;;;;;;;78.73;44.10;;;;;;;-0.68;86.54;99710.52;102533;1109;64830;-71
2021/01/20 01:47:17;;;;;;;86.47;45.53;;;;;;;-0.68;86.31;99713.17;102578;1109;81348;-72
2021/01/20 01:49:24;;;;;;;75.30;40.97;;;;;;;-0.67;86.43;99703.41;102553;1109;72079;-72
2021/01/20 01:51:30;;;;;;;84.40;46.35;;;;;;;-0.67;86.47;99706.91;102585;1109;84046;-64
2021/01/20 01:53:36;;;;;;;76.90;40.40;;;;;;;-0.64;86.34;99700.49;102501;1108;78966;-64
2021/01/20 01:55:42;;;;;;;76.33;40.83;;;;;;;-0.67;86.57;99698.95;102582;1113;65009;-73
2021/01/20 01:57:51;;;;;;;85.37;44.73;;;;;;;-0.68;86.25;99691.11;102674;1112;82985;-72
2021/01/20 01:59:56;;;;;;;74.17;40.43;;;;;;;-0.69;86.62;99694.77;102637;1109;72207;-65
2021/01/20 02:02:02;;;;;;;78.03;41.60;;;;;;;-0.66;86.36;99697.95;102535;1109;86360;-63
2021/01/20 02:04:08;;;;;;;80.60;41.03;;;;;;;-0.62;86.27;99691.42;102551;1109;77589;-63
2021/01/20 02:06:14;;;;;;;77.50;42.35;;;;;;;-0.64;86.32;99690.73;102573;1109;64836;-69
2021/01/20 02:08:20;;;;;;;75.80;42.30;;;;;;;-0.66;86.42;99702.45;102513;1109;83898;-69
2021/01/20 02:10:29;;;;;;;76.83;40.63;;;;;;;-0.70;86.32;99699.22;102582;1109;72584;-69
2021/01/20 02:13:06;;;;;;;87.33;44.13;;;;;;;-0.69;86.07;99700.06;102529;1109;86099;-68
2021/01/20 02:15:22;;;;;;;70.85;40.00;;;;;;;-0.69;86.31;99700.06;102526;1106;78055;-63
2021/01/20 02:17:38;;;;;;;72.97;38.93;;;;;;;-0.68;86.30;99704.37;102552;1106;64881;-63
2021/01/20 02:20:06;;;;;;;71.83;37.53;;;;;;;-0.71;86.56;99696.69;102515;1106;82723;-63
2021/01/20 02:22:24;;;;;;;68.83;38.83;;;;;;;-0.75;86.20;99698.79;102638;1106;71828;-62
2021/01/20 02:24:49;;;;;;;70.73;39.50;;;;;;;-0.73;86.31;99696.84;102629;1106;84805;-67
2021/01/20 02:27:07;;;;;;;69.43;36.60;;;;;;;-0.75;86.35;99693.48;102676;1105;79171;-70
2021/01/20 02:29:30;;;;;;;69.90;38.17;;;;;;;-0.70;86.37;99701.88;102651;1109;64913;-69
2021/01/20 02:31:36;;;;;;;71.53;36.53;;;;;;;-0.70;86.25;99693.91;102683;1105;82916;-64
2021/01/20 02:33:46;;;;;;;67.67;37.43;;;;;;;-0.73;86.38;99699.48;102672;1109;72724;-63
2021/01/20 02:36:00;;;;;;;66.77;37.83;;;;;;;-0.69;86.23;99698.23;102662;1106;85739;-64
2021/01/20 02:38:06;;;;;;;65.97;35.05;;;;;;;-0.75;86.29;99695.30;102653;1106;79094;-63
2021/01/20 02:40:15;;;;;;;71.07;38.47;;;;;;;-0.74;86.29;99703.09;102618;1106;64971;-62
2021/01/20 02:42:21;;;;;;;67.83;35.70;;;;;;;-0.73;85.99;99703.95;102561;1105;82384;-62
2021/01/20 02:44:30;;;;;;;67.77;36.47;;;;;;;-0.74;86.15;99703.09;102532;1109;72564;-67
2021/01/20 02:46:36;;;;;;;69.43;37.80;;;;;;;-0.78;86.06;99696.41;102534;1108;85730;-64
2021/01/20 02:48:42;;;;;;;68.83;36.43;;;;;;;-0.74;86.25;99704.91;102520;1106;77722;-66
2021/01/20 02:50:48;;;;;;;71.13;37.70;;;;;;;-0.76;85.83;99710.36;102593;1106;64875;-68
2021/01/20 02:53:01;;;;;;;66.50;33.73;;;;;;;-0.78;86.21;99703.52;102529;1109;83757;-69
2021/01/20 02:55:11;;;;;;;67.67;36.03;;;;;;;-0.81;86.18;99696.67;102597;1109;71617;-64
2021/01/20 02:57:18;;;;;;;66.63;33.33;;;;;;;-0.80;86.14;99694.87;102561;1106;85434;-64
2021/01/20 02:59:29;;;;;;;61.33;32.13;;;;;;;-0.83;86.15;99692.48;102544;1106;79709;-65
2021/01/20 03:01:38;;;;;;;65.60;36.30;;;;;;;-0.84;86.42;99690.79;102716;1106;64879;-64
2021/01/20 03:03:47;;;;;;;63.70;34.90;;;;;;;-0.84;86.05;99691.63;102663;1112;83107;-62
2021/01/20 03:05:54;;;;;;;62.80;34.03;;;;;;;-0.82;85.92;99691.48;102692;1109;71682;-69
2021/01/20 03:07:59;;;;;;;64.40;34.43;;;;;;;-0.84;85.88;99685.48;102684;1108;86253;-67
2021/01/20 03:10:10;;;;;;;69.90;36.27;;;;;;;-0.84;85.95;99686.33;102622;1109;78961;-63
2021/01/20 03:12:16;;;;;;;67.47;36.03;;;;;;;-0.83;86.27;99689.83;102556;1105;64878;-62
2021/01/20 03:14:26;;;;;;;66.30;34.90;;;;;;;-0.82;85.98;99689.68;102512;1109;84059;-63
2021/01/20 03:16:32;;;;;;;66.55;36.10;;;;;;;-0.80;85.89;99692.22;102585;1109;72419;-64
2021/01/20 03:18:38;;;;;;;62.07;32.33;;;;;;;-0.84;86.46;99693.44;102566;1105;84334;-64
2021/01/20 03:20:47;;;;;;;59.87;32.60;;;;;;;-0.85;86.10;99695.25;102546;1109;79811;-61
2021/01/20 03:23:24;;;;;;;68.83;35.15;;;;;;;-0.82;86.45;99694.14;100774;1105;3010838;-64
2021/01/20 03:25:30;;;;;;;67.47;35.73;;;;;;;-0.83;86.25;99698.63;103084;1106;80891;-60
2021/01/20 03:27:39;;;;;;;67.43;35.73;;;;;;;-0.78;85.89;99699.06;103085;1109;71944;-63
2021/01/20 03:29:47;;;;;;;60.47;31.13;;;;;;;-0.79;85.98;99700.02;103088;1109;86251;-71
2021/01/20 03:31:53;;;;;;;59.53;33.13;;;;;;;-0.82;86.21;99696.79;103027;1109;78027;-70
2021/01/20 03:34:00;;;;;;;63.50;34.07;;;;;;;-0.82;86.19;99694.98;103039;1109;64798;-71
2021/01/20 03:36:07;;;;;;;68.93;36.17;;;;;;;-0.82;86.36;99694.98;103070;1109;80657;-64
2021/01/20 03:38:13;;;;;;;62.20;33.40;;;;;;;-0.81;86.19;99693.17;103048;1109;71683;-64
2021/01/20 03:40:19;;;;;;;62.17;34.33;;;;;;;-0.76;85.91;99688.30;103036;1109;85821;-70
2021/01/20 03:42:27;;;;;;;64.60;34.43;;;;;;;-0.80;86.31;99702.82;103011;1109;79000;-70
2021/01/20 03:44:33;;;;;;;64.30;34.97;;;;;;;-0.77;86.20;99703.36;103056;1109;65196;-70
2021/01/20 03:46:39;;;;;;;59.90;31.60;;;;;;;-0.82;86.24;99704.74;103033;1109;81383;-72
2021/01/20 03:48:45;;;;;;;61.77;35.93;;;;;;;-0.80;86.28;99706.31;103035;1109;71237;-72
2021/01/20 03:50:51;;;;;;;64.93;36.40;;;;;;;-0.78;86.28;99701.70;103121;1109;84712;-72
2021/01/20 03:52:57;;;;;;;65.80;33.97;;;;;;;-0.80;86.20;99695.71;103110;1109;78171;-72
2021/01/20 03:55:03;;;;;;;60.27;32.33;;;;;;;-0.85;86.45;99692.59;103119;1109;65078;-66
2021/01/20 03:57:08;;;;;;;64.93;36.07;;;;;;;-0.84;86.06;99691.63;103075;1109;81217;-66
2021/01/20 03:59:14;;;;;;;67.90;36.23;;;;;;;-0.83;85.95;99697.78;103060;1109;71877;-64
2021/01/20 04:01:20;;;;;;;58.00;33.35;;;;;;;-0.83;86.16;99689.83;103037;1109;86598;-71
2021/01/20 04:03:26;;;;;;;59.10;32.17;;;;;;;-0.83;86.31;99693.33;103040;1108;78882;-71
2021/01/20 04:05:31;;;;;;;62.23;32.83;;;;;;;-0.80;86.19;99693.06;103069;1109;64787;-66
2021/01/20 04:07:37;;;;;;;61.30;32.17;;;;;;;-0.81;86.14;99691.37;103020;1109;82561;-64
2021/01/20 04:09:43;;;;;;;62.75;33.75;;;;;;;-0.84;86.14;99688.14;103057;1109;72511;-71
2021/01/20 04:11:49;;;;;;;62.77;34.37;;;;;;;-0.80;85.97;99687.75;103127;1109;85601;-72
2021/01/20 04:13:55;;;;;;;62.07;34.83;;;;;;;-0.81;86.19;99679.92;103095;1109;79039;-71
2021/01/20 04:16:00;;;;;;;63.63;33.37;;;;;;;-0.79;86.10;99677.96;103061;1109;62695;-70
2021/01/20 04:18:06;;;;;;;61.90;34.07;;;;;;;-0.80;86.34;99682.45;103014;1109;85231;-71
2021/01/20 04:20:15;;;;;;;61.50;31.85;;;;;;;-0.83;86.24;99674.77;103091;1109;72242;-69
2021/01/20 04:22:20;;;;;;;60.30;33.13;;;;;;;-0.78;86.29;99680.50;103048;1109;84313;-70
2021/01/20 04:24:26;;;;;;;64.83;34.27;;;;;;;-0.75;86.03;99682.04;103026;1109;78850;-69
2021/01/20 04:26:32;;;;;;;63.50;33.17;;;;;;;-0.76;86.41;99677.70;103051;1109;64949;-66
2021/01/20 04:28:38;;;;;;;57.80;32.43;;;;;;;-0.79;86.45;99673.50;103070;1109;81899;-65
2021/01/20 04:30:43;;;;;;;60.90;32.63;;;;;;;-0.78;86.26;99675.19;103040;1109;71174;-68
2021/01/20 04:32:49;;;;;;;59.65;34.40;;;;;;;-0.74;86.35;99675.74;103048;1109;86031;-69
2021/01/20 04:34:55;;;;;;;60.63;33.93;;;;;;;-0.74;86.40;99673.93;103038;1109;78989;-65
2021/01/20 04:37:01;;;;;;;59.70;32.93;;;;;;;-0.74;86.32;99676.58;103014;1107;64982;-64
2021/01/20 04:39:07;;;;;;;59.73;31.47;;;;;;;-0.71;85.85;99676.31;103016;1109;81766;-65
2021/01/20 04:41:12;;;;;;;61.30;32.80;;;;;;;-0.71;86.30;99671.02;103095;1109;71980;-73
2021/01/20 04:43:18;;;;;;;60.50;32.10;;;;;;;-0.75;86.23;99672.27;103002;1109;85168;-71
2021/01/20 04:45:24;;;;;;;61.83;32.50;;;;;;;-0.71;86.00;99667.52;103073;1109;79150;-73
2021/01/20 04:47:31;;;;;;;62.77;33.47;;;;;;;-0.70;86.06;99659.44;103049;1109;65008;-73
2021/01/20 04:49:37;;;;;;;62.23;34.17;;;;;;;-0.69;86.27;99671.70;102980;1109;82093;-63
2021/01/20 04:51:44;;;;;;;57.63;32.13;;;;;;;-0.66;86.14;99666.13;103024;1108;71562;-65
2021/01/20 04:53:54;;;;;;;61.83;32.57;;;;;;;-0.65;86.14;99670.48;103030;1109;85534;-66
2021/01/20 04:56:07;;;;;;;57.77;32.83;;;;;;;-0.66;86.14;99671.44;103037;1109;78070;-64
2021/01/20 04:58:13;;;;;;;57.43;32.90;;;;;;;-0.69;86.46;99669.05;103043;1109;64836;-64
2021/01/20 05:00:23;;;;;;;62.43;32.87;;;;;;;-0.67;86.17;99668.94;103061;1107;82446;-71
2021/01/20 05:02:30;;;;;;;63.00;30.80;;;;;;;-0.73;86.40;99664.17;103138;1109;71712;-72
2021/01/20 05:04:37;;;;;;;58.60;31.97;;;;;;;-0.72;86.49;99666.70;103115;1109;85755;-70
2021/01/20 05:06:46;;;;;;;55.87;32.37;;;;;;;-0.68;86.30;99672.55;103129;1109;77807;-70
2021/01/20 05:08:51;;;;;;;50.17;29.50;;;;;;;-0.68;86.43;99675.20;103164;1109;64842;-72
2021/01/20 05:11:00;;;;;;;58.35;31.75;;;;;;;-0.72;86.00;99677.31;103083;1105;82389;-63
2021/01/20 05:13:06;;;;;;;62.07;33.23;;;;;;;-0.70;86.36;99670.05;103045;1105;72864;-64
2021/01/20 05:15:17;;;;;;;55.27;32.10;;;;;;;-0.66;86.51;99671.44;103069;1106;85147;-64
2021/01/20 05:17:23;;;;;;;60.27;31.63;;;;;;;-0.61;86.39;99666.59;103041;1105;79300;-64
2021/01/20 05:19:40;;;;;;;59.00;32.07;;;;;;;-0.60;86.48;99665.59;103012;1105;64837;-64
2021/01/20 05:22:06;;;;;;;62.67;33.03;;;;;;;-0.58;86.40;99673.44;103050;1105;80232;-63
2021/01/20 05:24:26;;;;;;;56.27;31.27;;;;;;;-0.57;86.33;99675.09;103049;1106;71982;-63
2021/01/20 05:26:44;;;;;;;56.07;31.23;;;;;;;-0.58;86.17;99681.39;103164;1105;84781;-63
2021/01/20 05:28:50;;;;;;;59.53;32.77;;;;;;;-0.57;86.34;99674.25;103112;1105;77923;-62
2021/01/20 05:30:58;;;;;;;54.37;31.13;;;;;;;-0.64;86.35;99676.62;103105;1105;65034;-63
2021/01/20 05:33:07;;;;;;;56.75;31.40;;;;;;;-0.63;86.35;99671.17;103043;1105;82569;-62
2021/01/20 05:35:12;;;;;;;55.27;30.53;;;;;;;-0.58;86.31;99669.94;103083;1105;71460;-64
2021/01/20 05:37:18;;;;;;;58.23;30.40;;;;;;;-0.63;86.29;99678.28;103303;1105;84056;-64
2021/01/20 05:39:27;;;;;;;54.87;30.70;;;;;;;-0.62;86.49;99666.71;103263;1105;78738;-65
2021/01/20 05:41:35;;;;;;;55.70;30.60;;;;;;;-0.57;86.35;99675.09;103298;1105;65288;-63
2021/01/20 05:43:41;;;;;;;59.17;30.83;;;;;;;-0.58;86.45;99669.94;103274;1105;83017;-64
2021/01/20 05:45:48;;;;;;;58.30;30.67;;;;;;;-0.59;86.55;99671.75;103300;1105;71952;-71
2021/01/20 05:48:09;;;;;;;55.00;29.73;;;;;;;-0.55;86.15;99674.97;103384;1105;85634;-71
2021/01/20 05:50:16;;;;;;;51.67;29.37;;;;;;;-0.50;86.36;99686.84;103317;1105;78265;-71
2021/01/20 05:52:22;;;;;;;51.50;28.97;;;;;;;-0.54;86.28;99688.08;103293;1105;64857;-70
2021/01/20 05:54:36;;;;;;;57.65;32.45;;;;;;;-0.49;86.27;99685.85;103326;1105;81016;-71
2021/01/20 05:56:42;;;;;;;50.27;27.87;;;;;;;-0.48;86.23;99682.23;103299;1105;73030;-72
2021/01/20 05:58:48;;;;;;;55.00;30.63;;;;;;;-0.45;86.17;99681.13;103285;1106;86814;-71
2021/01/20 06:01:09;;;;;;;54.53;30.60;;;;;;;-0.43;86.47;99679.16;103317;1105;78337;-72
2021/01/20 06:03:15;;;;;;;54.80;29.95;;;;;;;-0.44;86.33;99680.97;103338;1105;64864;-71
2021/01/20 06:05:22;;;;;;;51.17;28.83;;;;;;;-0.41;86.30;99682.54;103289;1105;82730;-70
2021/01/20 06:07:28;;;;;;;51.27;29.67;;;;;;;-0.42;86.41;99680.85;103575;1102;73222;-70
2021/01/20 06:09:36;;;;;;;54.27;29.43;;;;;;;-0.39;86.41;99672.63;103531;1102;85899;-70
2021/01/20 06:11:42;;;;;;;56.33;29.70;;;;;;;-0.39;86.18;99681.42;103501;1102;79242;-71
2021/01/20 06:13:48;;;;;;;52.00;30.20;;;;;;;-0.34;86.39;99683.66;103522;1102;65269;-72
2021/01/20 06:15:59;;;;;;;53.80;28.63;;;;;;;-0.38;86.26;99682.23;103504;1102;82688;-63
2021/01/20 06:18:10;;;;;;;50.10;27.40;;;;;;;-0.37;86.35;99673.31;103509;1102;72117;-64
2021/01/20 06:20:23;;;;;;;55.47;30.07;;;;;;;-0.32;86.23;99685.19;103498;1102;86008;-64
2021/01/20 06:22:32;;;;;;;55.00;30.37;;;;;;;-0.28;86.17;99686.61;103455;1103;78675;-64
2021/01/20 06:24:45;;;;;;;54.40;30.55;;;;;;;-0.25;86.02;99688.14;103471;1102;62355;-65
2021/01/20 06:26:57;;;;;;;50.25;29.15;;;;;;;-0.27;86.39;99679.45;103436;1102;81561;-64
2021/01/20 06:29:07;;;;;;;55.63;30.97;;;;;;;-0.26;86.42;99679.34;103425;1102;72300;-65
2021/01/20 06:31:17;;;;;;;46.40;27.37;;;;;;;-0.20;86.31;99688.56;103484;1102;85203;-71
2021/01/20 06:33:28;;;;;;;48.60;27.53;;;;;;;-0.17;86.39;99686.48;103443;1102;78155;-70
2021/01/20 06:35:43;;;;;;;48.17;27.30;;;;;;;-0.20;86.68;99680.59;103454;1102;64866;-61
2021/01/20 06:37:50;;;;;;;49.47;28.53;;;;;;;-0.23;86.38;99694.14;103333;1102;81982;-64
2021/01/20 06:39:56;;;;;;;53.80;29.47;;;;;;;-0.22;86.49;99690.52;103442;1102;72046;-63
2021/01/20 06:42:03;;;;;;;51.20;28.00;;;;;;;-0.20;86.32;99685.91;103492;1102;86780;-61
2021/01/20 06:44:14;;;;;;;47.33;26.73;;;;;;;-0.19;86.35;99690.22;103407;1102;79540;-63
2021/01/20 06:46:28;;;;;;;56.30;29.60;;;;;;;-0.22;86.61;99685.22;103473;1102;64921;-72
2021/01/20 06:49:14;;;;;;;49.30;28.17;;;;;;;-0.17;86.43;99690.94;103463;1102;81123;-70
2021/01/20 06:51:18;;;;;;;;;;;;;;;-0.09;86.17;99688.43;103512;1102;72407;-70
2021/01/20 06:53:27;;;;;;;51.77;28.33;;;;;;;-0.07;86.31;99686.47;103455;1102;84913;-71
2021/01/20 06:55:34;;;;;;;52.40;27.60;;;;;;;-0.11;86.36;99687.73;103463;1102;78812;-64
2021/01/20 06:57:41;;;;;;;52.83;29.63;;;;;;;-0.10;86.44;99681.44;103449;1102;65033;-63
2021/01/20 06:59:47;;;;;;;49.73;28.90;;;;;;;-0.04;86.55;99688.84;103296;1102;82470;-71
2021/01/20 07:02:14;;;;;;;50.27;29.50;;;;;;;-0.02;86.46;99690.38;103394;1102;72317;-71
2021/01/20 07:05:00;;;;;;;50.43;27.57;;;;;;;0.00;86.38;99683.11;103435;1102;84841;-66
2021/01/20 07:07:07;;;;;;;48.40;26.67;;;;;;;0.03;86.50;99683.83;103494;1102;77540;-65
2021/01/20 07:09:14;;;;;;;50.60;28.97;;;;;;;0.04;86.37;99683.67;103584;1102;64835;-69
2021/01/20 07:11:20;;;;;;;52.73;28.90;;;;;;;0.08;86.37;99685.08;103480;1102;81957;-62
2021/01/20 07:13:49;;;;;;;48.60;28.17;;;;;;;0.10;86.57;99688.43;103465;1102;73272;-70
2021/01/20 07:15:58;;;;;;;52.37;29.43;;;;;;;0.09;86.40;99686.73;103435;1102;85998;-60
2021/01/20 07:18:07;;;;;;;50.87;28.67;;;;;;;0.08;86.56;99694.86;103417;1102;77999;-61
2021/01/20 07:20:15;;;;;;;49.93;28.30;;;;;;;0.14;86.49;99689.81;103498;1102;64836;-69
2021/01/20 07:22:21;;;;;;;50.47;28.50;;;;;;;0.16;86.46;99684.38;103403;1103;82790;-70
2021/01/20 07:24:27;;;;;;;48.73;27.90;;;;;;;0.19;86.51;99679.63;103413;1102;72907;-64
2021/01/20 07:26:34;;;;;;;51.07;28.00;;;;;;;0.20;86.61;99685.75;103435;1102;84979;-70
2021/01/20 07:28:41;;;;;;;51.20;29.90;;;;;;;0.24;86.62;99682.69;103425;1102;78925;-70
2021/01/20 07:30:47;;;;;;;47.53;28.40;;;;;;;0.27;86.71;99682.41;103476;1102;64732;-71
2021/01/20 07:32:53;;;;;;;47.07;28.53;;;;;;;0.31;86.72;99674.98;103260;1102;81652;-70
2021/01/20 07:34:59;;;;;;;45.10;28.03;;;;;;;0.35;86.73;99682.54;103476;1102;72170;-69
2021/01/20 07:37:10;;;;;;;49.10;28.40;;;;;;;0.38;86.66;99679.60;103461;1102;84683;-72
2021/01/20 07:39:24;;;;;;;51.00;29.03;;;;;;;0.39;86.58;99678.60;103406;1102;79112;-71
2021/01/20 07:41:30;;;;;;;50.20;28.60;;;;;;;0.42;86.60;99688.95;103434;1102;64835;-73
2021/01/20 07:43:39;;;;;;;53.17;29.20;;;;;;;0.44;86.50;99702.92;103414;1102;83587;-74
2021/01/20 07:45:44;;;;;;;47.27;27.97;;;;;;;0.48;86.50;99696.36;103447;1102;73011;-70
2021/01/20 07:47:50;;;;;;;46.03;27.43;;;;;;;0.50;86.47;99697.04;103404;1102;85409;-71
2021/01/20 07:49:56;;;;;;;51.65;29.55;;;;;;;0.49;86.46;99690.07;103428;1102;79701;-71
2021/01/20 07:52:04;;;;;;;52.63;30.37;;;;;;;0.52;86.36;99700.39;103429;1102;64675;-73
2021/01/20 07:54:13;;;;;;;50.13;29.37;;;;;;;0.55;86.36;99693.95;103403;1102;83487;-73
2021/01/20 07:56:24;;;;;;;46.50;27.37;;;;;;;0.59;86.60;99695.35;103471;1103;72585;-71
2021/01/20 07:58:31;;;;;;;51.87;31.20;;;;;;;0.62;86.64;99697.73;103449;1102;83909;-70
2021/01/20 08:00:48;;;;;;;52.90;30.53;;;;;;;0.63;86.61;99699.41;103459;1102;78595;-61
2021/01/20 08:02:56;;;;;;;54.10;31.47;;;;;;;0.69;86.35;99696.16;103467;1101;64812;-62
2021/01/20 08:05:03;;;;;;;52.73;29.87;;;;;;;0.67;86.53;99698.13;103456;1102;81248;-69
2021/01/20 08:07:11;;;;;;;56.30;31.67;;;;;;;0.71;86.52;99694.22;103318;1102;72942;-71
2021/01/20 08:09:17;;;;;;;46.13;29.53;;;;;;;0.77;86.49;99704.24;103255;1102;85170;-70
2021/01/20 08:11:28;;;;;;;52.57;30.63;;;;;;;0.83;86.68;99697.52;103265;1102;79408;-72
2021/01/20 08:13:34;;;;;;;49.20;28.13;;;;;;;0.91;86.45;99710.92;103281;1102;64886;-72
2021/01/20 08:15:44;;;;;;;50.75;29.30;;;;;;;0.96;86.56;99704.19;103325;1102;81321;-72
2021/01/20 08:17:50;;;;;;;55.03;30.10;;;;;;;0.98;86.37;99706.72;103286;1102;71031;-74
2021/01/20 08:19:57;;;;;;;52.13;30.37;;;;;;;1.01;86.80;99704.61;103289;1102;83640;-73
2021/01/20 08:22:04;;;;;;;47.97;28.27;;;;;;;1.01;86.62;99701.95;103270;1102;79695;-71
2021/01/20 08:24:10;;;;;;;53.47;29.93;;;;;;;1.01;86.44;99698.45;103285;1102;65049;-71
2021/01/20 08:26:16;;;;;;;49.43;29.07;;;;;;;1.00;86.69;99710.06;103303;1102;81325;-73
2021/01/20 08:28:28;;;;;;;45.33;27.53;;;;;;;1.07;86.27;99708.51;103283;1103;72087;-75
2021/01/20 08:30:36;;;;;;;44.10;27.07;;;;;;;1.07;86.28;99711.98;103301;1102;84581;-70
2021/01/20 08:32:56;;;;;;;47.10;28.80;;;;;;;1.10;86.49;99724.14;103274;1102;78064;-71
2021/01/20 08:35:03;;;;;;;46.73;27.07;;;;;;;1.09;86.48;99718.02;103308;1102;64848;-72
2021/01/20 08:37:11;;;;;;;47.40;29.23;;;;;;;1.12;86.19;99720.39;103306;1102;82607;-72
2021/01/20 08:39:21;;;;;;;49.03;28.47;;;;;;;1.11;86.42;99720.52;103262;1102;73597;-72
2021/01/20 08:41:28;;;;;;;48.10;28.03;;;;;;;1.11;86.56;99733.81;103306;1103;84597;-71
2021/01/20 08:43:37;;;;;;;48.93;28.37;;;;;;;1.15;86.39;99725.39;103262;1103;78069;-71
2021/01/20 08:45:43;;;;;;;46.00;26.87;;;;;;;1.15;86.25;99725.39;103297;1102;64787;-61
2021/01/20 08:47:55;;;;;;;47.27;27.50;;;;;;;1.23;86.57;99737.98;103311;1102;83305;-62
2021/01/20 08:50:01;;;;;;;52.00;27.53;;;;;;;1.29;86.56;99723.25;103339;1102;72164;-71
2021/01/20 08:52:07;;;;;;;46.03;28.10;;;;;;;1.31;86.49;99735.42;103267;1102;85771;-69
2021/01/20 08:54:14;;;;;;;44.43;27.23;;;;;;;1.33;86.61;99732.60;103298;1102;79985;-70
2021/01/20 08:56:29;;;;;;;48.50;29.05;;;;;;;1.32;86.45;99739.73;103359;1102;64839;-69
2021/01/20 08:58:35;;;;;;;43.07;26.23;;;;;;;1.37;86.58;99734.84;103329;1102;82929;-69
2021/01/20 09:00:45;;;;;;;45.63;25.17;;;;;;;1.41;86.77;99730.88;103316;1102;71504;-61
2021/01/20 09:02:51;;;;;;;44.43;25.73;;;;;;;1.37;86.60;99734.84;103296;1102;84031;-62
2021/01/20 09:04:57;;;;;;;42.37;27.10;;;;;;;1.43;86.79;99742.21;103268;1102;78866;-63
2021/01/20 09:07:05;;;;;;;48.07;27.83;;;;;;;1.49;86.74;99738.97;103319;1102;64777;-62
2021/01/20 09:09:11;;;;;;;42.03;26.70;;;;;;;1.55;86.50;99738.38;103315;1102;81116;-62
2021/01/20 09:11:16;;;;;;;46.40;27.47;;;;;;;1.56;86.50;99737.41;103306;1103;73548;-72
2021/01/20 09:13:26;;;;;;;46.17;27.03;;;;;;;1.56;86.65;99740.07;103280;1102;85544;-70
2021/01/20 09:15:34;;;;;;;48.20;28.40;;;;;;;1.57;86.40;99731.08;103318;1102;78083;-62
2021/01/20 09:17:39;;;;;;;45.93;27.53;;;;;;;1.63;86.17;99733.15;103308;1102;64809;-62
2021/01/20 09:19:49;;;;;;;40.57;26.80;;;;;;;1.64;86.08;99734.84;103278;1105;82936;-69
2021/01/20 09:21:57;;;;;;;44.13;26.07;;;;;;;1.65;86.25;99739.16;103308;1102;72619;-71
2021/01/20 09:24:03;;;;;;;42.80;26.27;;;;;;;1.61;86.40;99740.45;103299;1102;85339;-70
2021/01/20 09:26:09;;;;;;;42.77;26.27;;;;;;;1.62;86.31;99738.64;103316;1102;79138;-70
2021/01/20 09:28:16;;;;;;;45.90;27.00;;;;;;;1.69;86.59;99731.72;103301;1105;65282;-71
2021/01/20 09:30:23;;;;;;;42.97;26.23;;;;;;;1.74;86.38;99730.28;103286;1102;82835;-69
2021/01/20 09:32:29;;;;;;;43.27;27.83;;;;;;;1.66;86.47;99734.67;103320;1102;72130;-68
2021/01/20 09:34:35;;;;;;;41.73;25.63;;;;;;;1.70;86.50;99730.74;103301;1102;85034;-61
2021/01/20 09:36:40;;;;;;;43.43;25.83;;;;;;;1.69;86.76;99724.58;103258;1102;79810;-63
2021/01/20 09:38:46;;;;;;;43.57;25.13;;;;;;;1.66;86.24;99730.19;103278;1102;64934;-63
2021/01/20 09:40:52;;;;;;;42.40;26.13;;;;;;;1.76;86.47;99730.12;103279;1103;81963;-68
2021/01/20 09:42:58;;;;;;;42.90;28.23;;;;;;;1.79;86.54;99717.35;103287;1102;71300;-72
2021/01/20 09:45:05;;;;;;;45.80;29.13;;;;;;;1.85;86.30;99720.39;103285;1102;86086;-62
2021/01/20 09:47:14;;;;;;;48.00;29.10;;;;;;;1.92;86.40;99721.48;103285;1102;79157;-62